createdAt,value
2023-01-17T00:00:52.793Z,5.20
2023-01-17T00:06:09.522Z,5.20
2023-01-17T00:11:09.142Z,5.10
2023-01-17T00:16:08.662Z,4.80
2023-01-17T00:21:25.782Z,4.60
2023-01-17T00:26:24.623Z,4.50
2023-01-17T00:31:23.034Z,4.50
2023-01-17T00:36:21.076Z,4.50
2023-01-17T00:41:19.108Z,4.40
2023-01-17T00:46:35.689Z,4.40
2023-01-17T00:51:52.817Z,4.30
2023-01-17T00:57:09.737Z,4.30
2023-01-17T01:02:28.510Z,4.20
2023-01-17T01:07:45.995Z,4.20
2023-01-17T01:13:03.047Z,4.20
2023-01-17T01:18:20.063Z,4.20
2023-01-17T01:23:36.845Z,4.30
2023-01-17T01:28:53.819Z,4.30
2023-01-17T01:33:53.275Z,4.20
2023-01-17T01:38:54.068Z,4.10
2023-01-17T01:43:52.925Z,4.10
2023-01-17T01:48:51.625Z,4.20
2023-01-17T01:53:50.627Z,4.20
2023-01-17T01:58:49.550Z,4.20
2023-01-17T02:03:48.582Z,4.30
2023-01-17T02:08:47.650Z,4.40
2023-01-17T02:13:46.540Z,4.30
2023-01-17T02:18:45.739Z,4.40
2023-01-17T02:23:44.789Z,4.40
2023-01-17T02:28:43.703Z,4.40
2023-01-17T02:33:42.701Z,4.50
2023-01-17T02:38:41.717Z,4.50
2023-01-17T02:43:41.057Z,4.50
2023-01-17T02:48:39.757Z,4.50
2023-01-17T02:53:40.061Z,4.50
2023-01-17T02:58:39.296Z,4.50
2023-01-17T03:03:38.937Z,4.40
2023-01-17T03:08:37.833Z,4.40
2023-01-17T03:13:36.631Z,4.40
2023-01-17T03:18:35.666Z,4.30
2023-01-17T03:23:34.662Z,4.30
2023-01-17T03:28:33.695Z,4.20
2023-01-17T03:33:32.574Z,4.10
2023-01-17T03:38:31.627Z,4.10
2023-01-17T03:43:30.600Z,4.00
2023-01-17T03:48:29.718Z,4.00
2023-01-17T03:53:28.760Z,4.00
2023-01-17T03:58:27.745Z,4.00
2023-01-17T04:03:26.562Z,3.90
2023-01-17T04:08:25.779Z,3.90
2023-01-17T04:13:24.678Z,4.00
2023-01-17T04:18:24.604Z,4.10
2023-01-17T04:23:23.812Z,4.20
2023-01-17T04:28:22.959Z,4.20
2023-01-17T04:33:21.926Z,4.30
2023-01-17T04:38:20.661Z,4.30
2023-01-17T04:43:19.664Z,4.40
2023-01-17T04:48:18.872Z,4.40
2023-01-17T04:53:17.567Z,4.40
2023-01-17T04:58:16.606Z,4.30
2023-01-17T05:03:15.675Z,4.20
2023-01-17T05:08:14.719Z,4.10
2023-01-17T05:13:13.719Z,4.00
2023-01-17T05:18:12.745Z,3.90
2023-01-17T05:23:11.790Z,3.90
2023-01-17T05:28:10.801Z,3.80
2023-01-17T05:33:10.176Z,3.80
2023-01-17T05:38:08.807Z,3.80
2023-01-17T05:43:07.624Z,3.70
2023-01-17T05:48:06.820Z,3.70
2023-01-17T05:53:05.753Z,3.70
2023-01-17T05:58:04.825Z,3.70
2023-01-17T06:03:03.851Z,3.70
2023-01-17T06:08:02.906Z,3.80
2023-01-17T06:13:01.977Z,3.80
2023-01-17T06:18:00.875Z,3.80
2023-01-17T06:22:59.898Z,3.80
2023-01-17T06:27:58.897Z,3.90
2023-01-17T06:32:57.739Z,3.80
2023-01-17T06:37:57.849Z,3.80
2023-01-17T06:42:56.748Z,3.80
2023-01-17T06:47:55.755Z,4.00
2023-01-17T06:52:54.732Z,4.00
2023-01-17T06:57:53.771Z,4.00
2023-01-17T07:02:52.797Z,4.10
2023-01-17T07:07:53.122Z,4.10
2023-01-17T07:12:51.842Z,4.20
2023-01-17T07:17:50.771Z,4.30
2023-01-17T07:22:49.895Z,4.30
2023-01-17T07:27:48.977Z,4.30
2023-01-17T07:32:47.908Z,4.40
2023-01-17T07:37:46.891Z,4.40
2023-01-17T07:42:45.904Z,4.30
2023-01-17T07:47:45.046Z,4.30
2023-01-17T07:52:43.922Z,4.40
2023-01-17T07:57:42.925Z,4.30
2023-01-17T08:02:41.962Z,4.30
2023-01-17T08:07:40.975Z,4.40
2023-01-17T08:12:40.167Z,4.50
2023-01-17T08:17:38.993Z,4.60
2023-01-17T08:22:37.807Z,4.70
2023-01-17T08:27:36.790Z,4.70
2023-01-17T08:32:37.704Z,4.60
2023-01-17T08:37:37.449Z,4.50
2023-01-17T08:42:39.183Z,4.40
2023-01-17T08:47:37.836Z,4.40
2023-01-17T08:52:36.808Z,4.30
2023-01-17T08:57:35.993Z,4.30
2023-01-17T09:02:35.815Z,4.30
2023-01-17T09:07:34.912Z,4.30
2023-01-17T09:12:36.009Z,4.30
2023-01-17T09:17:34.943Z,4.40
2023-01-17T09:22:35.608Z,4.40
2023-01-17T09:27:35.063Z,4.50
2023-01-17T09:32:33.988Z,4.50
2023-01-17T09:37:32.889Z,4.50
2023-01-17T09:42:32.006Z,4.70
2023-01-17T09:47:30.882Z,5.00
2023-01-17T09:52:29.809Z,5.10
2023-01-17T09:57:28.820Z,5.30
2023-01-17T10:02:28.331Z,5.30
2023-01-17T10:07:27.893Z,5.60
2023-01-17T10:12:26.723Z,5.70
2023-01-17T10:17:25.921Z,5.50
2023-01-17T10:22:24.917Z,5.40
2023-01-17T10:27:23.937Z,5.40
2023-01-17T10:32:22.957Z,5.50
2023-01-17T10:37:21.851Z,5.70
2023-01-17T10:42:20.906Z,5.80
2023-01-17T10:47:19.997Z,5.90
2023-01-17T10:52:18.986Z,6.10
2023-01-17T10:57:18.007Z,6.30
2023-01-17T11:02:17.071Z,6.60
2023-01-17T11:07:16.045Z,6.70
2023-01-17T11:12:14.923Z,6.80
2023-01-17T11:17:14.257Z,6.60
2023-01-17T11:22:13.569Z,6.40
2023-01-17T11:27:12.922Z,6.10
2023-01-17T11:32:12.358Z,5.80
2023-01-17T11:37:10.860Z,5.60
2023-01-17T11:42:09.932Z,5.70
2023-01-17T11:47:09.198Z,6.10
2023-01-17T11:52:07.956Z,6.30
2023-01-17T11:57:06.860Z,6.30
2023-01-17T12:02:05.964Z,6.30
2023-01-17T12:07:04.893Z,6.30
2023-01-17T12:12:22.262Z,6.40
2023-01-17T12:17:21.029Z,6.70
2023-01-17T12:22:20.035Z,6.90
2023-01-17T12:27:19.426Z,7.20
2023-01-17T12:32:19.953Z,7.30
2023-01-17T12:37:18.926Z,7.30
2023-01-17T12:42:18.392Z,7.20
2023-01-17T12:47:18.166Z,7.10
2023-01-17T12:52:17.038Z,7.30
2023-01-17T12:57:16.004Z,7.60
2023-01-17T13:02:15.007Z,7.60
2023-01-17T13:07:14.010Z,7.80
2023-01-17T13:12:13.205Z,8.00
2023-01-17T13:17:12.049Z,8.00
2023-01-17T13:22:12.918Z,7.70
2023-01-17T13:27:12.115Z,7.40
2023-01-17T13:32:11.110Z,7.20
2023-01-17T13:37:10.148Z,6.90
2023-01-17T13:42:12.198Z,6.70
2023-01-17T13:47:11.062Z,6.60
2023-01-17T13:52:10.328Z,6.60
2023-01-17T13:57:09.269Z,6.60
2023-01-17T14:02:08.055Z,6.60
2023-01-17T14:07:07.138Z,6.70
2023-01-17T14:12:06.072Z,6.80
2023-01-17T14:17:05.100Z,7.00
2023-01-17T14:22:04.154Z,7.10
2023-01-17T14:27:03.097Z,7.10
2023-01-17T14:32:02.147Z,7.10
2023-01-17T14:37:00.930Z,7.10
2023-01-17T14:42:00.196Z,7.30
2023-01-17T14:46:59.149Z,7.30
2023-01-17T14:51:57.972Z,7.20
2023-01-17T14:56:58.990Z,7.00
2023-01-17T15:02:07.564Z,7.00
2023-01-17T15:07:00.114Z,6.90
2023-01-17T15:11:59.116Z,6.80
2023-01-17T15:16:58.202Z,6.60
2023-01-17T15:21:56.971Z,6.50
2023-01-17T15:26:56.221Z,6.30
2023-01-17T15:31:54.986Z,6.10
2023-01-17T15:36:56.093Z,6.00
2023-01-17T15:41:55.115Z,5.80
2023-01-17T15:46:54.200Z,5.70
2023-01-17T15:51:53.050Z,5.50
2023-01-17T15:56:52.062Z,5.40
2023-01-17T16:01:51.287Z,5.30
2023-01-17T16:06:50.007Z,5.10
2023-01-17T16:11:49.094Z,5.00
2023-01-17T16:16:48.245Z,4.80
2023-01-17T16:21:48.013Z,4.70
2023-01-17T16:26:47.214Z,4.60
2023-01-17T16:31:46.147Z,4.50
2023-01-17T16:36:45.167Z,4.30
2023-01-17T16:41:44.183Z,4.20
2023-01-17T16:46:43.192Z,4.10
2023-01-17T16:51:42.013Z,4.10
2023-01-17T16:56:41.216Z,4.00
2023-01-17T17:01:40.178Z,3.90
2023-01-17T17:06:39.227Z,3.70
2023-01-17T17:11:38.166Z,3.70
2023-01-17T17:16:38.565Z,3.60
2023-01-17T17:21:38.116Z,3.60
2023-01-17T17:26:37.116Z,3.60
2023-01-17T17:31:36.124Z,3.50
2023-01-17T17:36:35.223Z,3.40
2023-01-17T17:41:34.377Z,3.30
2023-01-17T17:46:33.496Z,3.30
2023-01-17T17:51:32.206Z,3.20
2023-01-17T17:56:31.082Z,3.10
2023-01-17T18:01:30.318Z,3.00
2023-01-17T18:06:29.208Z,2.90
2023-01-17T18:11:28.032Z,2.90
2023-01-17T18:16:27.281Z,2.80
2023-01-17T18:21:26.021Z,2.80
2023-01-17T18:26:25.043Z,2.70
2023-01-17T18:31:24.785Z,2.70
2023-01-17T18:36:24.139Z,2.60
2023-01-17T18:41:23.145Z,2.50
2023-01-17T18:46:22.113Z,2.40
2023-01-17T18:51:21.442Z,2.40
2023-01-17T18:56:20.083Z,2.40
2023-01-17T19:01:19.222Z,2.30
2023-01-17T19:06:18.192Z,2.30
2023-01-17T19:11:17.172Z,2.30
2023-01-17T19:16:16.546Z,2.30
2023-01-17T19:21:15.216Z,2.30
2023-01-17T19:26:14.319Z,2.20
2023-01-17T19:31:13.255Z,2.20
2023-01-17T19:36:13.120Z,2.10
2023-01-17T19:41:14.769Z,2.10
2023-01-17T19:46:13.101Z,2.00
2023-01-17T19:51:12.590Z,2.00
2023-01-17T19:56:11.165Z,2.00
2023-01-17T20:01:10.209Z,2.00
2023-01-17T20:06:09.189Z,2.00
2023-01-17T20:11:08.169Z,1.90
2023-01-17T20:16:08.125Z,1.90
2023-01-17T20:21:07.326Z,1.90
2023-01-17T20:26:06.358Z,1.90
2023-01-17T20:31:05.244Z,1.90
2023-01-17T20:36:10.700Z,1.90
2023-01-17T20:41:06.192Z,1.80
2023-01-17T20:46:05.291Z,1.80
2023-01-17T20:51:05.476Z,1.80
2023-01-17T20:56:04.225Z,1.90
2023-01-17T21:01:03.330Z,1.90
2023-01-17T21:06:02.147Z,1.80
2023-01-17T21:11:01.257Z,1.80
2023-01-17T21:16:00.254Z,1.80
2023-01-17T21:20:59.318Z,1.70
2023-01-17T21:25:59.072Z,1.70
2023-01-17T21:30:58.180Z,1.60
2023-01-17T21:35:57.218Z,1.60
2023-01-17T21:40:56.318Z,1.60
2023-01-17T21:45:55.493Z,1.60
2023-01-17T21:50:54.130Z,1.60
2023-01-17T21:56:11.347Z,1.50
2023-01-17T22:01:12.901Z,1.50
2023-01-17T22:06:12.141Z,1.50
2023-01-17T22:11:11.280Z,1.40
2023-01-17T22:16:10.402Z,1.40
2023-01-17T22:21:09.290Z,1.30
2023-01-17T22:26:08.577Z,1.30
2023-01-17T22:31:08.338Z,1.30
2023-01-17T22:36:07.180Z,1.30
2023-01-17T22:41:07.665Z,1.30
2023-01-17T22:46:06.230Z,1.20
2023-01-17T22:51:05.197Z,1.20
2023-01-17T22:56:04.236Z,1.10
2023-01-17T23:01:03.512Z,1.10
2023-01-17T23:06:02.282Z,1.20
2023-01-17T23:11:19.401Z,1.20
2023-01-17T23:16:36.426Z,1.10
2023-01-17T23:21:55.048Z,1.10
2023-01-17T23:27:13.698Z,1.10
2023-01-17T23:32:12.364Z,1.10
2023-01-17T23:37:11.265Z,1.10
2023-01-17T23:42:28.456Z,1.10
2023-01-17T23:47:27.405Z,1.10
2023-01-17T23:52:26.330Z,1.10
2023-01-17T23:57:25.343Z,1.00
